Buoy 51532

sailwx.info

Track history (hours):
 
Tides and Currents Weather Stations Pressure Air Temp Water Temp Dewpoint Dewpoint Depression Visibility Wind Speed Wind Dir Waves Ship Positions

Drifting buoy 51532

Last reported at 2015-Jul-29 03:12 UTC. Time now 2015-Jul-29 04:53 UTC.
Position N 35°06' W 133°01'.

Water temperature 20.9 ° C

Date/timePositionNaut miles runAvg speedWind from/ knotsBaromVisibWave heightAir tempDewpointWater temp
2015-Jul-29 03:12N 35°06' W 133°01'2 1.4 20.9
2015-Jul-29 02:07N 35°06' W 133°03'0 0.0 21.0
2015-Jul-29 02:00N 35°06' W 133°03'1 0.3 21.0
2015-Jul-28 23:54N 35°06' W 133°04'0 0.3 21.0
2015-Jul-28 22:01N 35°06' W 133°04'1 0.3 21.0
2015-Jul-28 19:48N 35°06' W 133°03'1 1.3 20.9
2015-Jul-28 18:53N 35°07' W 133°05'0 0.1 20.8
2015-Jul-28 16:17N 35°07' W 133°05'112.0 20.8
2015-Jul-28 16:11N 35°05' W 133°05'0 0.0
2015-Jul-28 16:02N 35°05' W 133°05'2 8.6 20.7
2015-Jul-28 15:50N 35°07' W 133°06'0 0.2 20.7
2015-Jul-28 14:14N 35°07' W 133°05'1 0.5 20.7
2015-Jul-28 13:00N 35°08' W 133°05'0 3.1 20.8
2015-Jul-28 12:57N 35°08' W 133°05'2 2.6 20.8
2015-Jul-28 12:08N 35°09' W 133°08'0 0.0 20.8
2015-Jul-28 12:05N 35°09' W 133°08'2 0.3 20.8
2015-Jul-28 05:51N 35°09' W 133°10'0 0.0 20.8
2015-Jul-28 04:51N 35°09' W 133°10'0 3.7 20.8
2015-Jul-28 04:48N 35°09' W 133°10'1 0.4 20.8
2015-Jul-28 03:10N 35°08' W 133°10'0 0.3 20.9
2015-Jul-28 02:14N 35°08' W 133°10'0 0.2 21.0
2015-Jul-28 01:57N 35°08' W 133°10'1 0.2 21.0
2015-Jul-27 20:01N 35°09' W 133°11'1 0.3 20.8
2015-Jul-27 16:13N 35°10' W 133°12'2 0.5
2015-Jul-27 13:08N 35°10' W 133°14'1 2.7 20.7
2015-Jul-27 12:54N 35°10' W 133°14'1 0.3 20.7
2015-Jul-27 10:45N 35°10' W 133°15'1 0.2 20.7
2015-Jul-27 06:50N 35°09' W 133°16'0 0.2 20.7
2015-Jul-27 05:06N 35°09' W 133°16'1 0.2 20.8
2015-Jul-27 02:28N 35°09' W 133°17'0 2.3
2015-Jul-27 02:26N 35°09' W 133°16'0 0.7 20.8
2015-Jul-27 02:01N 35°09' W 133°16'0 0.4 20.8
2015-Jul-27 00:47N 35°09' W 133°17'0 0.0 20.8
2015-Jul-27 00:03N 35°09' W 133°17'0 2.6 20.9
2015-Jul-26 23:54N 35°09' W 133°17'0 0.0 20.8
2015-Jul-26 22:23N 35°09' W 133°17'1 0.4 20.8
2015-Jul-26 20:26N 35°10' W 133°17'1 0.5 20.8
2015-Jul-26 18:52N 35°10' W 133°18'1 3.0 20.7
2015-Jul-26 18:41N 35°11' W 133°18'0 0.0 20.7
2015-Jul-26 17:55N 35°11' W 133°18'1 0.7 20.7
2015-Jul-26 17:09N 35°11' W 133°18'0 0.0 20.7
2015-Jul-26 16:39N 35°11' W 133°18'0 0.0 20.7
2015-Jul-26 15:19N 35°11' W 133°18'0 0.8 20.7
2015-Jul-26 15:04N 35°11' W 133°18'0 2.3 20.7
2015-Jul-26 15:01N 35°11' W 133°18'132.8 20.7
2015-Jul-26 14:59N 35°11' W 133°19'0 0.0 20.7
2015-Jul-26 14:53N 35°11' W 133°19'0 0.1 20.7
2015-Jul-26 13:43N 35°11' W 133°19'0 1.4 20.7
2015-Jul-26 13:23N 35°12' W 133°20'0 0.0 20.7
2015-Jul-26 13:18N 35°12' W 133°20'1 1.0 20.7
2015-Jul-26 12:32N 35°11' W 133°20'116.8 20.6
2015-Jul-26 12:29N 35°11' W 133°21'0 0.0 20.6
2015-Jul-26 10:58N 35°11' W 133°21'0 0.9 20.7
2015-Jul-26 10:53N 35°11' W 133°21'116.5 20.7
2015-Jul-26 10:49N 35°10' W 133°22'0 0.0 20.7
2015-Jul-26 10:47N 35°10' W 133°22'0 0.1 20.7
2015-Jul-26 07:12N 35°10' W 133°21'0 0.1 20.7
2015-Jul-26 06:25N 35°10' W 133°21'0 0.0 20.7
2015-Jul-26 05:36N 35°10' W 133°21'0 0.3 20.7
2015-Jul-26 04:48N 35°10' W 133°21'0 0.2
2015-Jul-26 04:09N 35°10' W 133°21'0 1.4 20.8
2015-Jul-26 03:53N 35°11' W 133°21'0 0.0 20.8
2015-Jul-26 02:45N 35°11' W 133°21'0 0.7 20.8
2015-Jul-26 02:38N 35°11' W 133°21'0 4.1 20.8
2015-Jul-26 02:33N 35°11' W 133°21'0 0.2 20.8
2015-Jul-26 01:12N 35°11' W 133°21'0 1.8 20.8
2015-Jul-26 01:10N 35°11' W 133°21'0 0.9 20.8
2015-Jul-26 01:06N 35°11' W 133°21'0 0.7 20.8
2015-Jul-26 01:01N 35°11' W 133°21'0 0.4 20.8
2015-Jul-26 00:09N 35°11' W 133°21'1 1.1 20.8
2015-Jul-25 23:15N 35°11' W 133°22'0 0.0 20.8
2015-Jul-25 22:35N 35°11' W 133°22'0 0.1 20.8
2015-Jul-25 20:52N 35°11' W 133°22'0 0.1 20.7
2015-Jul-25 19:59N 35°11' W 133°22'1 0.5 20.7
2015-Jul-25 17:28N 35°12' W 133°24'1 0.4 20.5
2015-Jul-25 15:53N 35°12' W 133°24'1 0.7 20.5
2015-Jul-25 15:11N 35°12' W 133°25'0 0.3 20.5
2015-Jul-25 14:17N 35°12' W 133°25'0 1.1 20.5
2015-Jul-25 13:53N 35°12' W 133°24'1 0.7 20.5
2015-Jul-25 12:50N 35°12' W 133°25'1 0.5 20.5
2015-Jul-25 10:59N 35°12' W 133°26'0 0.0 20.5
2015-Jul-25 09:22N 35°12' W 133°26'1 0.3
2015-Jul-25 07:31N 35°11' W 133°26'0 0.0 20.6
2015-Jul-25 06:53N 35°11' W 133°26'0 1.6 20.7
2015-Jul-25 06:47N 35°11' W 133°26'0 0.3 20.7
2015-Jul-25 05:58N 35°11' W 133°26'0 2.0 20.7
2015-Jul-25 05:50N 35°11' W 133°26'0 0.0 20.7
2015-Jul-25 05:08N 35°11' W 133°26'0 0.9 20.7
2015-Jul-25 04:44N 35°11' W 133°26'0 0.7 20.7
2015-Jul-25 04:37N 35°11' W 133°26'1 2.8 20.7
2015-Jul-25 04:16N 35°10' W 133°26'2 1.8 20.7
2015-Jul-25 03:16N 35°12' W 133°26'0 0.0 20.8
2015-Jul-25 03:13N 35°12' W 133°26'0 0.8 20.8
2015-Jul-25 03:04N 35°12' W 133°26'1 0.4 20.8
2015-Jul-25 01:11N 35°12' W 133°26'3 2.0 20.8
2015-Jul-24 23:54N 35°13' W 133°29'1 0.2 20.8
2015-Jul-24 21:03N 35°13' W 133°28'1 0.3 20.7
2015-Jul-24 17:47N 35°13' W 133°30'0 0.2 20.6
2015-Jul-24 16:54N 35°13' W 133°30'0 0.3 20.5
2015-Jul-24 15:59N 35°13' W 133°30'1 1.7 20.5
2015-Jul-24 15:30N 35°12' W 133°31'3 0.2 20.5
2015-Jul-23 21:06N 35°14' W 133°34'0 0.1 20.8
2015-Jul-23 19:52N 35°14' W 133°34'1 0.8 20.5
2015-Jul-23 19:01N 35°14' W 133°35'1 0.3 20.4
2015-Jul-23 16:18N 35°13' W 133°35'0 0.5 20.2
2015-Jul-23 15:15N 35°13' W 133°35'0 0.3 20.2
2015-Jul-23 14:43N 35°13' W 133°35'0 0.3 20.2
2015-Jul-23 13:06N 35°14' W 133°34'0 0.0 20.2
2015-Jul-23 11:32N 35°14' W 133°34'1 0.3 20.3
2015-Jul-23 06:41N 35°15' W 133°35'1 1.1 20.4
2015-Jul-23 05:47N 35°16' W 133°36'0 0.5 20.4
2015-Jul-23 04:56N 35°15' W 133°36'1 0.7 20.4
2015-Jul-23 04:02N 35°15' W 133°36'0 0.5 20.4
2015-Jul-23 03:11N 35°16' W 133°36'1 0.3 20.4
2015-Jul-22 23:53N 35°15' W 133°37'0 0.4 20.5
2015-Jul-22 23:08N 35°15' W 133°38'1 0.2 20.5
2015-Jul-22 20:08N 35°15' W 133°37'1 0.1 20.4
2015-Jul-22 15:08N 35°15' W 133°37'0 0.4 20.4
2015-Jul-22 14:06N 35°15' W 133°38'111.4 20.4
2015-Jul-22 14:02N 35°16' W 133°37'0 0.0 20.4
2015-Jul-22 13:19N 35°16' W 133°37'0 0.0 20.4
2015-Jul-22 13:14N 35°16' W 133°37'2 0.6 20.4
2015-Jul-22 09:55N 35°16' W 133°39'1 0.2 20.5
2015-Jul-22 06:54N 35°16' W 133°39'1 0.2 20.7
2015-Jul-22 02:58N 35°16' W 133°40'1 0.5 20.8
2015-Jul-22 01:12N 35°16' W 133°40'0 0.0 20.9
2015-Jul-22 00:55N 35°16' W 133°40'0 0.0 20.9
2015-Jul-22 00:00N 35°16' W 133°40'0 0.4 21.0
2015-Jul-21 23:12N 35°16' W 133°40'0 0.1 20.9
2015-Jul-21 19:42N 35°16' W 133°40'1 0.8 20.4
2015-Jul-21 18:53N 35°16' W 133°40'0 0.0 20.4
2015-Jul-21 18:47N 35°16' W 133°40'1 0.3 20.4
2015-Jul-21 16:02N 35°17' W 133°40'0 2.5 20.2
2015-Jul-21 15:52N 35°17' W 133°41'1 0.6 20.2
2015-Jul-21 14:18N 35°18' W 133°41'111.0 20.2
2015-Jul-21 14:15N 35°18' W 133°41'0 0.9 20.2
2015-Jul-21 13:52N 35°18' W 133°41'0 0.1 20.2
2015-Jul-21 11:56N 35°18' W 133°41'1 0.6 20.2
2015-Jul-21 10:10N 35°18' W 133°42'1 0.3 20.2
2015-Jul-21 05:41N 35°17' W 133°43'1 4.1 20.3
2015-Jul-21 05:33N 35°17' W 133°44'1 1.6 20.3
2015-Jul-21 05:07N 35°17' W 133°43'0 0.0 20.3
2015-Jul-21 04:53N 35°17' W 133°43'0 0.0
2015-Jul-21 03:56N 35°17' W 133°43'0 0.5 20.4
2015-Jul-21 03:11N 35°18' W 133°43'0 0.0 20.4
2015-Jul-21 01:58N 35°18' W 133°43'0 0.0 20.5
2015-Jul-21 01:53N 35°18' W 133°43'0 2.9 20.5
2015-Jul-21 01:44N 35°18' W 133°43'0 0.0 20.5
2015-Jul-21 00:16N 35°18' W 133°43'0 0.3 20.4
2015-Jul-20 23:27N 35°18' W 133°43'1 0.5 20.4
2015-Jul-20 21:50N 35°19' W 133°43'1 0.5 20.4
2015-Jul-20 20:50N 35°19' W 133°44'0 0.2 20.2
2015-Jul-20 19:17N 35°19' W 133°44'0 0.0 20.0
2015-Jul-20 19:14N 35°19' W 133°44'1 6.9 20.0
2015-Jul-20 19:08N 35°19' W 133°45'0 0.0 20.0
2015-Jul-20 18:19N 35°19' W 133°45'0 0.2 20.0
2015-Jul-20 17:32N 35°19' W 133°45'0 0.3 20.0
2015-Jul-20 16:11N 35°19' W 133°45'0 0.0 20.0
2015-Jul-20 15:59N 35°19' W 133°45'0 3.8 20.0
2015-Jul-20 15:52N 35°19' W 133°45'0 0.0 20.0
2015-Jul-20 15:08N 35°19' W 133°45'0 0.3 20.0
2015-Jul-20 14:36N 35°19' W 133°45'0 0.0 20.0
2015-Jul-20 14:29N 35°19' W 133°45'113.7 20.0
2015-Jul-20 14:26N 35°19' W 133°44'117.3 20.0
2015-Jul-20 14:22N 35°19' W 133°46'1 6.0 20.0
2015-Jul-20 14:17N 35°19' W 133°45'1 3.8 20.0
2015-Jul-20 14:09N 35°19' W 133°46'0 0.0 20.0
2015-Jul-20 14:08N 35°19' W 133°46'0 0.1 20.0
2015-Jul-20 12:46N 35°19' W 133°46'0 0.0 20.0
2015-Jul-20 12:45N 35°19' W 133°46'0 0.0 20.0
2015-Jul-20 12:03N 35°19' W 133°46'0 0.0 20.0
2015-Jul-20 12:00N 35°19' W 133°46'0 8.7 20.0
2015-Jul-20 11:57N 35°20' W 133°46'0 0.0 20.0
2015-Jul-20 10:25N 35°20' W 133°46'112.8 20.0
2015-Jul-20 10:20N 35°19' W 133°47'0 0.1 20.0
2015-Jul-20 06:54N 35°19' W 133°47'1 0.9 20.0
2015-Jul-20 06:01N 35°19' W 133°48'1 0.3 20.0
2015-Jul-20 03:54N 35°19' W 133°47'1 0.5 20.1
2015-Jul-20 02:09N 35°20' W 133°47'0 0.0 20.2
2015-Jul-20 02:01N 35°20' W 133°47'0 0.0 20.2
2015-Jul-20 01:55N 35°20' W 133°47'1 0.6 20.2
2015-Jul-20 00:26N 35°21' W 133°47'0 0.0 20.2
2015-Jul-20 00:20N 35°21' W 133°47'0 0.2 20.2
2015-Jul-19 22:00N 35°20' W 133°47'2 0.5 20.1
2015-Jul-19 18:45N 35°21' W 133°49'1 0.4 20.0
2015-Jul-19 16:58N 35°21' W 133°48'1 1.3 20.0
2015-Jul-19 16:20N 35°22' W 133°49'0 0.0 20.0
2015-Jul-19 16:17N 35°22' W 133°49'1 0.4 20.0
2015-Jul-19 14:04N 35°21' W 133°50'0 0.4 20.0
2015-Jul-19 13:00N 35°21' W 133°50'0 4.7 20.0
2015-Jul-19 12:55N 35°21' W 133°50'0 0.4 20.0
2015-Jul-19 12:12N 35°21' W 133°49'0 5.9 20.0
2015-Jul-19 12:09N 35°21' W 133°49'0 5.9 20.0
2015-Jul-19 12:06N 35°21' W 133°49'1 0.2 20.0
2015-Jul-19 07:58N 35°21' W 133°49'1 0.4 20.1
2015-Jul-19 05:35N 35°21' W 133°49'   20.1
Track history (hours):
 
Tides and Currents Weather Stations Pressure Air Temp Water Temp Dewpoint Dewpoint Depression Visibility Wind Speed Wind Dir Waves Ship Positions

Drifting buoy 51532

Last reported at 2015-Jul-29 03:12 UTC. Time now 2015-Jul-29 04:53 UTC.
Position N 35°06' W 133°01'.

Water temperature 20.9 ° C

Date/timePositionNaut miles runAvg speedWind from/ knotsBaromVisibWave heightAir tempDewpointWater temp
2015-Jul-29 03:12N 35°06' W 133°01'2 1.4 20.9
2015-Jul-29 02:07N 35°06' W 133°03'0 0.0 21.0
2015-Jul-29 02:00N 35°06' W 133°03'1 0.3 21.0
2015-Jul-28 23:54N 35°06' W 133°04'0 0.3 21.0
2015-Jul-28 22:01N 35°06' W 133°04'1 0.3 21.0
2015-Jul-28 19:48N 35°06' W 133°03'1 1.3 20.9
2015-Jul-28 18:53N 35°07' W 133°05'0 0.1 20.8
2015-Jul-28 16:17N 35°07' W 133°05'112.0 20.8
2015-Jul-28 16:11N 35°05' W 133°05'0 0.0
2015-Jul-28 16:02N 35°05' W 133°05'2 8.6 20.7
2015-Jul-28 15:50N 35°07' W 133°06'0 0.2 20.7
2015-Jul-28 14:14N 35°07' W 133°05'1 0.5 20.7
2015-Jul-28 13:00N 35°08' W 133°05'0 3.1 20.8
2015-Jul-28 12:57N 35°08' W 133°05'2 2.6 20.8
2015-Jul-28 12:08N 35°09' W 133°08'0 0.0 20.8
2015-Jul-28 12:05N 35°09' W 133°08'2 0.3 20.8
2015-Jul-28 05:51N 35°09' W 133°10'0 0.0 20.8
2015-Jul-28 04:51N 35°09' W 133°10'0 3.7 20.8
2015-Jul-28 04:48N 35°09' W 133°10'1 0.4 20.8
2015-Jul-28 03:10N 35°08' W 133°10'0 0.3 20.9
2015-Jul-28 02:14N 35°08' W 133°10'0 0.2 21.0
2015-Jul-28 01:57N 35°08' W 133°10'1 0.2 21.0
2015-Jul-27 20:01N 35°09' W 133°11'1 0.3 20.8
2015-Jul-27 16:13N 35°10' W 133°12'2 0.5
2015-Jul-27 13:08N 35°10' W 133°14'1 2.7 20.7
2015-Jul-27 12:54N 35°10' W 133°14'1 0.3 20.7
2015-Jul-27 10:45N 35°10' W 133°15'1 0.2 20.7
2015-Jul-27 06:50N 35°09' W 133°16'0 0.2 20.7
2015-Jul-27 05:06N 35°09' W 133°16'1 0.2 20.8
2015-Jul-27 02:28N 35°09' W 133°17'0 2.3
2015-Jul-27 02:26N 35°09' W 133°16'0 0.7 20.8
2015-Jul-27 02:01N 35°09' W 133°16'0 0.4 20.8
2015-Jul-27 00:47N 35°09' W 133°17'0 0.0 20.8
2015-Jul-27 00:03N 35°09' W 133°17'0 2.6 20.9
2015-Jul-26 23:54N 35°09' W 133°17'0 0.0 20.8
2015-Jul-26 22:23N 35°09' W 133°17'1 0.4 20.8
2015-Jul-26 20:26N 35°10' W 133°17'1 0.5 20.8
2015-Jul-26 18:52N 35°10' W 133°18'1 3.0 20.7
2015-Jul-26 18:41N 35°11' W 133°18'0 0.0 20.7
2015-Jul-26 17:55N 35°11' W 133°18'1 0.7 20.7
2015-Jul-26 17:09N 35°11' W 133°18'0 0.0 20.7
2015-Jul-26 16:39N 35°11' W 133°18'0 0.0 20.7
2015-Jul-26 15:19N 35°11' W 133°18'0 0.8 20.7
2015-Jul-26 15:04N 35°11' W 133°18'0 2.3 20.7
2015-Jul-26 15:01N 35°11' W 133°18'132.8 20.7
2015-Jul-26 14:59N 35°11' W 133°19'0 0.0 20.7
2015-Jul-26 14:53N 35°11' W 133°19'0 0.1 20.7
2015-Jul-26 13:43N 35°11' W 133°19'0 1.4 20.7
2015-Jul-26 13:23N 35°12' W 133°20'0 0.0 20.7
2015-Jul-26 13:18N 35°12' W 133°20'1 1.0 20.7
2015-Jul-26 12:32N 35°11' W 133°20'116.8 20.6
2015-Jul-26 12:29N 35°11' W 133°21'0 0.0 20.6
2015-Jul-26 10:58N 35°11' W 133°21'0 0.9 20.7
2015-Jul-26 10:53N 35°11' W 133°21'116.5 20.7
2015-Jul-26 10:49N 35°10' W 133°22'0 0.0 20.7
2015-Jul-26 10:47N 35°10' W 133°22'0 0.1 20.7
2015-Jul-26 07:12N 35°10' W 133°21'0 0.1 20.7
2015-Jul-26 06:25N 35°10' W 133°21'0 0.0 20.7
2015-Jul-26 05:36N 35°10' W 133°21'0 0.3 20.7
2015-Jul-26 04:48N 35°10' W 133°21'0 0.2
2015-Jul-26 04:09N 35°10' W 133°21'0 1.4 20.8
2015-Jul-26 03:53N 35°11' W 133°21'0 0.0 20.8
2015-Jul-26 02:45N 35°11' W 133°21'0 0.7 20.8
2015-Jul-26 02:38N 35°11' W 133°21'0 4.1 20.8
2015-Jul-26 02:33N 35°11' W 133°21'0 0.2 20.8
2015-Jul-26 01:12N 35°11' W 133°21'0 1.8 20.8
2015-Jul-26 01:10N 35°11' W 133°21'0 0.9 20.8
2015-Jul-26 01:06N 35°11' W 133°21'0 0.7 20.8
2015-Jul-26 01:01N 35°11' W 133°21'0 0.4 20.8
2015-Jul-26 00:09N 35°11' W 133°21'1 1.1 20.8
2015-Jul-25 23:15N 35°11' W 133°22'0 0.0 20.8
2015-Jul-25 22:35N 35°11' W 133°22'0 0.1 20.8
2015-Jul-25 20:52N 35°11' W 133°22'0 0.1 20.7
2015-Jul-25 19:59N 35°11' W 133°22'1 0.5 20.7
2015-Jul-25 17:28N 35°12' W 133°24'1 0.4 20.5
2015-Jul-25 15:53N 35°12' W 133°24'1 0.7 20.5
2015-Jul-25 15:11N 35°12' W 133°25'0 0.3 20.5
2015-Jul-25 14:17N 35°12' W 133°25'0 1.1 20.5
2015-Jul-25 13:53N 35°12' W 133°24'1 0.7 20.5
2015-Jul-25 12:50N 35°12' W 133°25'1 0.5 20.5
2015-Jul-25 10:59N 35°12' W 133°26'0 0.0 20.5
2015-Jul-25 09:22N 35°12' W 133°26'1 0.3
2015-Jul-25 07:31N 35°11' W 133°26'0 0.0 20.6
2015-Jul-25 06:53N 35°11' W 133°26'0 1.6 20.7
2015-Jul-25 06:47N 35°11' W 133°26'0 0.3 20.7
2015-Jul-25 05:58N 35°11' W 133°26'0 2.0 20.7
2015-Jul-25 05:50N 35°11' W 133°26'0 0.0 20.7
2015-Jul-25 05:08N 35°11' W 133°26'0 0.9 20.7
2015-Jul-25 04:44N 35°11' W 133°26'0 0.7 20.7
2015-Jul-25 04:37N 35°11' W 133°26'1 2.8 20.7
2015-Jul-25 04:16N 35°10' W 133°26'2 1.8 20.7
2015-Jul-25 03:16N 35°12' W 133°26'0 0.0 20.8
2015-Jul-25 03:13N 35°12' W 133°26'0 0.8 20.8
2015-Jul-25 03:04N 35°12' W 133°26'1 0.4 20.8
2015-Jul-25 01:11N 35°12' W 133°26'3 2.0 20.8
2015-Jul-24 23:54N 35°13' W 133°29'1 0.2 20.8
2015-Jul-24 21:03N 35°13' W 133°28'1 0.3 20.7
2015-Jul-24 17:47N 35°13' W 133°30'0 0.2 20.6
2015-Jul-24 16:54N 35°13' W 133°30'0 0.3 20.5
2015-Jul-24 15:59N 35°13' W 133°30'1 1.7 20.5
2015-Jul-24 15:30N 35°12' W 133°31'3 0.2 20.5
2015-Jul-23 21:06N 35°14' W 133°34'0 0.1 20.8
2015-Jul-23 19:52N 35°14' W 133°34'1 0.8 20.5
2015-Jul-23 19:01N 35°14' W 133°35'1 0.3 20.4
2015-Jul-23 16:18N 35°13' W 133°35'0 0.5 20.2
2015-Jul-23 15:15N 35°13' W 133°35'0 0.3 20.2
2015-Jul-23 14:43N 35°13' W 133°35'0 0.3 20.2
2015-Jul-23 13:06N 35°14' W 133°34'0 0.0 20.2
2015-Jul-23 11:32N 35°14' W 133°34'1 0.3 20.3
2015-Jul-23 06:41N 35°15' W 133°35'1 1.1 20.4
2015-Jul-23 05:47N 35°16' W 133°36'0 0.5 20.4
2015-Jul-23 04:56N 35°15' W 133°36'1 0.7 20.4
2015-Jul-23 04:02N 35°15' W 133°36'0 0.5 20.4
2015-Jul-23 03:11N 35°16' W 133°36'1 0.3 20.4
2015-Jul-22 23:53N 35°15' W 133°37'0 0.4 20.5
2015-Jul-22 23:08N 35°15' W 133°38'1 0.2 20.5
2015-Jul-22 20:08N 35°15' W 133°37'1 0.1 20.4
2015-Jul-22 15:08N 35°15' W 133°37'0 0.4 20.4
2015-Jul-22 14:06N 35°15' W 133°38'111.4 20.4
2015-Jul-22 14:02N 35°16' W 133°37'0 0.0 20.4
2015-Jul-22 13:19N 35°16' W 133°37'0 0.0 20.4
2015-Jul-22 13:14N 35°16' W 133°37'2 0.6 20.4
2015-Jul-22 09:55N 35°16' W 133°39'1 0.2 20.5
2015-Jul-22 06:54N 35°16' W 133°39'1 0.2 20.7
2015-Jul-22 02:58N 35°16' W 133°40'1 0.5 20.8
2015-Jul-22 01:12N 35°16' W 133°40'0 0.0 20.9
2015-Jul-22 00:55N 35°16' W 133°40'0 0.0 20.9
2015-Jul-22 00:00N 35°16' W 133°40'0 0.4 21.0
2015-Jul-21 23:12N 35°16' W 133°40'0 0.1 20.9
2015-Jul-21 19:42N 35°16' W 133°40'1 0.8 20.4
2015-Jul-21 18:53N 35°16' W 133°40'0 0.0 20.4
2015-Jul-21 18:47N 35°16' W 133°40'1 0.3 20.4
2015-Jul-21 16:02N 35°17' W 133°40'0 2.5 20.2
2015-Jul-21 15:52N 35°17' W 133°41'1 0.6 20.2
2015-Jul-21 14:18N 35°18' W 133°41'111.0 20.2
2015-Jul-21 14:15N 35°18' W 133°41'0 0.9 20.2
2015-Jul-21 13:52N 35°18' W 133°41'0 0.1 20.2
2015-Jul-21 11:56N 35°18' W 133°41'1 0.6 20.2
2015-Jul-21 10:10N 35°18' W 133°42'1 0.3 20.2
2015-Jul-21 05:41N 35°17' W 133°43'1 4.1 20.3
2015-Jul-21 05:33N 35°17' W 133°44'1 1.6 20.3
2015-Jul-21 05:07N 35°17' W 133°43'0 0.0 20.3
2015-Jul-21 04:53N 35°17' W 133°43'0 0.0
2015-Jul-21 03:56N 35°17' W 133°43'0 0.5 20.4
2015-Jul-21 03:11N 35°18' W 133°43'0 0.0 20.4
2015-Jul-21 01:58N 35°18' W 133°43'0 0.0 20.5
2015-Jul-21 01:53N 35°18' W 133°43'0 2.9 20.5
2015-Jul-21 01:44N 35°18' W 133°43'0 0.0 20.5
2015-Jul-21 00:16N 35°18' W 133°43'0 0.3 20.4
2015-Jul-20 23:27N 35°18' W 133°43'1 0.5 20.4
2015-Jul-20 21:50N 35°19' W 133°43'1 0.5 20.4
2015-Jul-20 20:50N 35°19' W 133°44'0 0.2 20.2
2015-Jul-20 19:17N 35°19' W 133°44'0 0.0 20.0
2015-Jul-20 19:14N 35°19' W 133°44'1 6.9 20.0
2015-Jul-20 19:08N 35°19' W 133°45'0 0.0 20.0
2015-Jul-20 18:19N 35°19' W 133°45'0 0.2 20.0
2015-Jul-20 17:32N 35°19' W 133°45'0 0.3 20.0
2015-Jul-20 16:11N 35°19' W 133°45'0 0.0 20.0
2015-Jul-20 15:59N 35°19' W 133°45'0 3.8 20.0
2015-Jul-20 15:52N 35°19' W 133°45'0 0.0 20.0
2015-Jul-20 15:08N 35°19' W 133°45'0 0.3 20.0
2015-Jul-20 14:36N 35°19' W 133°45'0 0.0 20.0
2015-Jul-20 14:29N 35°19' W 133°45'113.7 20.0
2015-Jul-20 14:26N 35°19' W 133°44'117.3 20.0
2015-Jul-20 14:22N 35°19' W 133°46'1 6.0 20.0
2015-Jul-20 14:17N 35°19' W 133°45'1 3.8 20.0
2015-Jul-20 14:09N 35°19' W 133°46'0 0.0 20.0
2015-Jul-20 14:08N 35°19' W 133°46'0 0.1 20.0
2015-Jul-20 12:46N 35°19' W 133°46'0 0.0 20.0
2015-Jul-20 12:45N 35°19' W 133°46'0 0.0 20.0
2015-Jul-20 12:03N 35°19' W 133°46'0 0.0 20.0
2015-Jul-20 12:00N 35°19' W 133°46'0 8.7 20.0
2015-Jul-20 11:57N 35°20' W 133°46'0 0.0 20.0
2015-Jul-20 10:25N 35°20' W 133°46'112.8 20.0
2015-Jul-20 10:20N 35°19' W 133°47'0 0.1 20.0
2015-Jul-20 06:54N 35°19' W 133°47'1 0.9 20.0
2015-Jul-20 06:01N 35°19' W 133°48'1 0.3 20.0
2015-Jul-20 03:54N 35°19' W 133°47'1 0.5 20.1
2015-Jul-20 02:09N 35°20' W 133°47'0 0.0 20.2
2015-Jul-20 02:01N 35°20' W 133°47'0 0.0 20.2
2015-Jul-20 01:55N 35°20' W 133°47'1 0.6 20.2
2015-Jul-20 00:26N 35°21' W 133°47'0 0.0 20.2
2015-Jul-20 00:20N 35°21' W 133°47'0 0.2 20.2
2015-Jul-19 22:00N 35°20' W 133°47'2 0.5 20.1
2015-Jul-19 18:45N 35°21' W 133°49'1 0.4 20.0
2015-Jul-19 16:58N 35°21' W 133°48'1 1.3 20.0
2015-Jul-19 16:20N 35°22' W 133°49'0 0.0 20.0
2015-Jul-19 16:17N 35°22' W 133°49'1 0.4 20.0
2015-Jul-19 14:04N 35°21' W 133°50'0 0.4 20.0
2015-Jul-19 13:00N 35°21' W 133°50'0 4.7 20.0
2015-Jul-19 12:55N 35°21' W 133°50'0 0.4 20.0
2015-Jul-19 12:12N 35°21' W 133°49'0 5.9 20.0
2015-Jul-19 12:09N 35°21' W 133°49'0 5.9 20.0
2015-Jul-19 12:06N 35°21' W 133°49'1 0.2 20.0
2015-Jul-19 07:58N 35°21' W 133°49'1 0.4 20.1
2015-Jul-19 05:35N 35°21' W 133°49'   20.1

Dump ship's entire track history